sensor_id;sensor_type;location;lat;lon;timestamp;pressure;altitude;pressure_sealevel;temperature;humidity
39789;BME280;25478;42.626;23.320;2022-07-23T00:00:34;93451.31;;;20.67;43.68
39789;BME280;25478;42.626;23.320;2022-07-23T00:02:59;93448.03;;;20.63;43.93
39789;BME280;25478;42.626;23.320;2022-07-23T00:05:25;93465.34;;;20.71;44.14
39789;BME280;25478;42.626;23.320;2022-07-23T00:07:51;93463.88;;;20.70;43.54
39789;BME280;25478;42.626;23.320;2022-07-23T00:10:17;93456.91;;;20.72;43.28
39789;BME280;25478;42.626;23.320;2022-07-23T00:12:43;93457.22;;;20.74;42.84
39789;BME280;25478;42.626;23.320;2022-07-23T00:15:09;93456.03;;;20.75;42.71
39789;BME280;25478;42.626;23.320;2022-07-23T00:17:35;93463.97;;;20.79;42.99
39789;BME280;25478;42.626;23.320;2022-07-23T00:20:00;93458.63;;;20.79;42.97
39789;BME280;25478;42.626;23.320;2022-07-23T00:22:26;93445.56;;;20.68;42.81
39789;BME280;25478;42.626;23.320;2022-07-23T00:24:53;93468.56;;;20.78;43.58
39789;BME280;25478;42.626;23.320;2022-07-23T00:27:18;93474.00;;;20.75;43.06
39789;BME280;25478;42.626;23.320;2022-07-23T00:29:44;93476.81;;;20.71;43.46
39789;BME280;25478;42.626;23.320;2022-07-23T00:32:09;93475.53;;;20.63;44.33
39789;BME280;25478;42.626;23.320;2022-07-23T00:34:35;93475.53;;;20.63;44.74
39789;BME280;25478;42.626;23.320;2022-07-23T00:37:01;93485.25;;;20.57;44.96
39789;BME280;25478;42.626;23.320;2022-07-23T00:39:26;93483.13;;;20.52;44.95
39789;BME280;25478;42.626;23.320;2022-07-23T00:41:52;93479.47;;;20.46;45.78
39789;BME280;25478;42.626;23.320;2022-07-23T00:44:25;93475.03;;;20.39;46.24
39789;BME280;25478;42.626;23.320;2022-07-23T00:46:56;93469.91;;;20.32;46.70
39789;BME280;25478;42.626;23.320;2022-07-23T00:49:28;93469.34;;;20.24;47.12
39789;BME280;25478;42.626;23.320;2022-07-23T00:51:54;93473.41;;;20.16;47.24
39789;BME280;25478;42.626;23.320;2022-07-23T00:54:22;93475.50;;;20.09;47.06
39789;BME280;25478;42.626;23.320;2022-07-23T00:56:48;93466.53;;;20.03;47.56
39789;BME280;25478;42.626;23.320;2022-07-23T00:59:14;93470.16;;;19.96;47.96
39789;BME280;25478;42.626;23.320;2022-07-23T01:01:40;93464.25;;;19.88;48.38
39789;BME280;25478;42.626;23.320;2022-07-23T01:04:06;93468.94;;;19.84;48.42
39789;BME280;25478;42.626;23.320;2022-07-23T01:06:36;93476.41;;;19.77;48.53
39789;BME280;25478;42.626;23.320;2022-07-23T01:09:04;93467.81;;;19.69;48.89
39789;BME280;25478;42.626;23.320;2022-07-23T01:11:32;93469.81;;;19.65;49.06
39789;BME280;25478;42.626;23.320;2022-07-23T01:13:58;93468.81;;;19.59;49.08
39789;BME280;25478;42.626;23.320;2022-07-23T01:16:23;93469.31;;;19.54;49.37
39789;BME280;25478;42.626;23.320;2022-07-23T01:18:49;93464.06;;;19.50;49.86
39789;BME280;25478;42.626;23.320;2022-07-23T01:21:17;93459.56;;;19.47;49.82
39789;BME280;25478;42.626;23.320;2022-07-23T01:23:43;93457.75;;;19.44;49.25
39789;BME280;25478;42.626;23.320;2022-07-23T01:26:09;93456.66;;;19.41;49.52
39789;BME280;25478;42.626;23.320;2022-07-23T01:28:35;93457.50;;;19.38;49.30
39789;BME280;25478;42.626;23.320;2022-07-23T01:31:01;93461.53;;;19.30;49.63
39789;BME280;25478;42.626;23.320;2022-07-23T01:33:31;93457.19;;;19.20;49.78
39789;BME280;25478;42.626;23.320;2022-07-23T01:35:57;93453.22;;;19.12;50.53
39789;BME280;25478;42.626;23.320;2022-07-23T01:38:24;93461.97;;;19.12;50.68
39789;BME280;25478;42.626;23.320;2022-07-23T01:40:49;93454.06;;;19.09;50.84
39789;BME280;25478;42.626;23.320;2022-07-23T01:43:15;93456.38;;;19.07;51.17
39789;BME280;25478;42.626;23.320;2022-07-23T01:45:41;93451.88;;;19.04;51.65
39789;BME280;25478;42.626;23.320;2022-07-23T01:48:08;93444.47;;;18.95;51.81
39789;BME280;25478;42.626;23.320;2022-07-23T01:50:33;93456.53;;;19.00;52.07
39789;BME280;25478;42.626;23.320;2022-07-23T01:53:02;93451.28;;;18.96;52.27
39789;BME280;25478;42.626;23.320;2022-07-23T01:55:27;93453.63;;;18.94;51.96
39789;BME280;25478;42.626;23.320;2022-07-23T01:57:53;93451.38;;;18.93;52.23
39789;BME280;25478;42.626;23.320;2022-07-23T02:00:21;93454.44;;;18.91;52.02
39789;BME280;25478;42.626;23.320;2022-07-23T02:02:50;93459.03;;;18.91;51.73
39789;BME280;25478;42.626;23.320;2022-07-23T02:05:15;93456.78;;;18.89;51.82
39789;BME280;25478;42.626;23.320;2022-07-23T02:07:41;93455.28;;;18.88;52.11
39789;BME280;25478;42.626;23.320;2022-07-23T02:10:08;93436.94;;;18.74;51.91
39789;BME280;25478;42.626;23.320;2022-07-23T02:12:33;93457.31;;;18.84;52.17
39789;BME280;25478;42.626;23.320;2022-07-23T02:14:59;93458.44;;;18.83;51.64
39789;BME280;25478;42.626;23.320;2022-07-23T02:17:25;93460.03;;;18.80;51.93
39789;BME280;25478;42.626;23.320;2022-07-23T02:19:50;93462.81;;;18.77;51.55
39789;BME280;25478;42.626;23.320;2022-07-23T02:22:16;93460.56;;;18.75;51.90
39789;BME280;25478;42.626;23.320;2022-07-23T02:24:41;93456.03;;;18.72;52.07
39789;BME280;25478;42.626;23.320;2022-07-23T02:27:07;93460.28;;;18.70;52.15
39789;BME280;25478;42.626;23.320;2022-07-23T02:29:33;93464.88;;;18.69;52.42
39789;BME280;25478;42.626;23.320;2022-07-23T02:31:59;93456.19;;;18.65;52.70
39789;BME280;25478;42.626;23.320;2022-07-23T02:34:24;93457.84;;;18.59;52.58
39789;BME280;25478;42.626;23.320;2022-07-23T02:36:50;93457.84;;;18.59;53.06
39789;BME280;25478;42.626;23.320;2022-07-23T02:39:15;93464.72;;;18.56;53.24
39789;BME280;25478;42.626;23.320;2022-07-23T02:41:41;93463.66;;;18.54;53.04
39789;BME280;25478;42.626;23.320;2022-07-23T02:44:07;93460.66;;;18.52;52.88
39789;BME280;25478;42.626;23.320;2022-07-23T02:46:33;93455.91;;;18.43;52.67
39789;BME280;25478;42.626;23.320;2022-07-23T02:48:59;93466.00;;;18.52;52.70
39789;BME280;25478;42.626;23.320;2022-07-23T02:51:24;93462.16;;;18.53;52.72
39789;BME280;25478;42.626;23.320;2022-07-23T02:53:55;93466.75;;;18.52;53.05
39789;BME280;25478;42.626;23.320;2022-07-23T02:56:21;93472.06;;;18.52;53.59
39789;BME280;25478;42.626;23.320;2022-07-23T02:58:46;93470.22;;;18.49;54.05
39789;BME280;25478;42.626;23.320;2022-07-23T03:01:12;93467.78;;;18.39;54.02
39789;BME280;25478;42.626;23.320;2022-07-23T03:03:38;93476.47;;;18.43;53.86
39789;BME280;25478;42.626;23.320;2022-07-23T03:06:04;93476.88;;;18.41;53.64
39789;BME280;25478;42.626;23.320;2022-07-23T03:08:29;93479.19;;;18.39;53.92
39789;BME280;25478;42.626;23.320;2022-07-23T03:10:55;93476.94;;;18.38;53.97
39789;BME280;25478;42.626;23.320;2022-07-23T03:13:21;93467.69;;;18.26;54.56
39789;BME280;25478;42.626;23.320;2022-07-23T03:15:46;93481.19;;;18.35;54.91
39789;BME280;25478;42.626;23.320;2022-07-23T03:18:12;93462.84;;;18.21;55.16
39789;BME280;25478;42.626;23.320;2022-07-23T03:20:38;93490.75;;;18.33;55.13
39789;BME280;25478;42.626;23.320;2022-07-23T03:23:03;93485.84;;;18.31;55.20
39789;BME280;25478;42.626;23.320;2022-07-23T03:25:30;93490.41;;;18.31;55.11
39789;BME280;25478;42.626;23.320;2022-07-23T03:27:56;93484.75;;;18.28;54.98
39789;BME280;25478;42.626;23.320;2022-07-23T03:30:22;93482.56;;;18.23;55.16
39789;BME280;25478;42.626;23.320;2022-07-23T03:32:48;93488.59;;;18.27;55.33
39789;BME280;25478;42.626;23.320;2022-07-23T03:35:13;93471.25;;;18.19;55.43
39789;BME280;25478;42.626;23.320;2022-07-23T03:37:47;93484.44;;;18.26;55.15
39789;BME280;25478;42.626;23.320;2022-07-23T03:40:13;93494.44;;;18.39;54.95
39789;BME280;25478;42.626;23.320;2022-07-23T03:42:38;93476.88;;;18.41;54.55
39789;BME280;25478;42.626;23.320;2022-07-23T03:45:06;93492.03;;;18.80;54.20
39789;BME280;25478;42.626;23.320;2022-07-23T03:47:32;93496.16;;;19.01;54.07
39789;BME280;25478;42.626;23.320;2022-07-23T03:49:57;93505.81;;;19.11;54.25
39789;BME280;25478;42.626;23.320;2022-07-23T03:52:23;93500.06;;;19.13;54.79
39789;BME280;25478;42.626;23.320;2022-07-23T03:54:50;93495.91;;;19.12;54.88
39789;BME280;25478;42.626;23.320;2022-07-23T03:57:16;93502.41;;;19.11;55.45
39789;BME280;25478;42.626;23.320;2022-07-23T03:59:41;93508.16;;;19.09;55.41
39789;BME280;25478;42.626;23.320;2022-07-23T04:02:08;93497.13;;;19.07;55.32
39789;BME280;25478;42.626;23.320;2022-07-23T04:04:33;93498.63;;;19.08;55.22
39789;BME280;25478;42.626;23.320;2022-07-23T04:06:59;93503.91;;;19.12;56.27
39789;BME280;25478;42.626;23.320;2022-07-23T04:09:26;93496.97;;;19.15;56.66
39789;BME280;25478;42.626;23.320;2022-07-23T04:11:52;93499.97;;;19.17;57.33
39789;BME280;25478;42.626;23.320;2022-07-23T04:14:19;93496.06;;;19.21;57.74
39789;BME280;25478;42.626;23.320;2022-07-23T04:16:45;93499.00;;;19.27;58.33
39789;BME280;25478;42.626;23.320;2022-07-23T04:19:10;93494.72;;;19.29;57.84
39789;BME280;25478;42.626;23.320;2022-07-23T04:21:48;93498.47;;;19.32;58.25
39789;BME280;25478;42.626;23.320;2022-07-23T04:24:14;93498.81;;;19.34;58.73
39789;BME280;25478;42.626;23.320;2022-07-23T04:26:40;93514.75;;;19.37;59.51
39789;BME280;25478;42.626;23.320;2022-07-23T04:29:05;93507.81;;;19.40;59.68
39789;BME280;25478;42.626;23.320;2022-07-23T04:31:31;93512.31;;;19.43;59.55
39789;BME280;25478;42.626;23.320;2022-07-23T04:33:56;93508.22;;;19.55;59.40
39789;BME280;25478;42.626;23.320;2022-07-23T04:36:22;93514.72;;;19.70;59.30
39789;BME280;25478;42.626;23.320;2022-07-23T04:38:48;93506.94;;;19.76;59.42
39789;BME280;25478;42.626;23.320;2022-07-23T04:41:13;93497.66;;;19.80;59.56
39789;BME280;25478;42.626;23.320;2022-07-23T04:43:39;93500.72;;;19.95;59.41
39789;BME280;25478;42.626;23.320;2022-07-23T04:46:05;93484.75;;;19.91;59.66
39789;BME280;25478;42.626;23.320;2022-07-23T04:48:37;93508.06;;;20.20;59.55
39789;BME280;25478;42.626;23.320;2022-07-23T04:51:08;93511.59;;;20.30;59.11
39789;BME280;25478;42.626;23.320;2022-07-23T04:53:37;93510.97;;;20.38;59.32
39789;BME280;25478;42.626;23.320;2022-07-23T04:56:02;93513.81;;;20.47;59.11
39789;BME280;25478;42.626;23.320;2022-07-23T04:58:29;93518.00;;;20.61;58.96
39789;BME280;25478;42.626;23.320;2022-07-23T05:00:55;93519.06;;;20.76;59.18
39789;BME280;25478;42.626;23.320;2022-07-23T05:03:23;93521.53;;;20.96;59.21
39789;BME280;25478;42.626;23.320;2022-07-23T05:05:48;93521.63;;;21.18;58.30
39789;BME280;25478;42.626;23.320;2022-07-23T05:08:16;93519.28;;;21.46;57.53
39789;BME280;25478;42.626;23.320;2022-07-23T05:10:44;93531.19;;;21.79;56.81
39789;BME280;25478;42.626;23.320;2022-07-23T05:13:09;93505.88;;;22.02;55.69
39789;BME280;25478;42.626;23.320;2022-07-23T05:18:01;93526.31;;;22.74;52.98
39789;BME280;25478;42.626;23.320;2022-07-23T05:20:27;93523.47;;;23.00;51.66
39789;BME280;25478;42.626;23.320;2022-07-23T05:22:53;93527.13;;;23.24;50.69
39789;BME280;25478;42.626;23.320;2022-07-23T05:25:18;93525.38;;;23.40;48.99
39789;BME280;25478;42.626;23.320;2022-07-23T05:27:44;93536.66;;;23.66;47.70
39789;BME280;25478;42.626;23.320;2022-07-23T05:30:10;93530.25;;;23.81;47.10
39789;BME280;25478;42.626;23.320;2022-07-23T05:32:37;93530.69;;;23.98;46.49
39789;BME280;25478;42.626;23.320;2022-07-23T05:35:10;93533.38;;;24.17;46.45
39789;BME280;25478;42.626;23.320;2022-07-23T05:37:39;93536.78;;;24.54;45.35
39789;BME280;25478;42.626;23.320;2022-07-23T05:40:07;93536.88;;;24.78;45.00
39789;BME280;25478;42.626;23.320;2022-07-23T05:42:34;93533.69;;;24.97;44.48
39789;BME280;25478;42.626;23.320;2022-07-23T05:44:59;93527.47;;;25.24;44.30
39789;BME280;25478;42.626;23.320;2022-07-23T05:47:27;93519.28;;;25.43;42.99
39789;BME280;25478;42.626;23.320;2022-07-23T05:49:53;93524.28;;;25.59;42.36
39789;BME280;25478;42.626;23.320;2022-07-23T05:52:32;93529.78;;;25.65;41.58
39789;BME280;25478;42.626;23.320;2022-07-23T05:55:27;93531.72;;;25.73;41.89
39789;BME280;25478;42.626;23.320;2022-07-23T05:57:55;93532.88;;;25.72;42.13
39789;BME280;25478;42.626;23.320;2022-07-23T06:00:21;93533.28;;;25.80;42.50
39789;BME280;25478;42.626;23.320;2022-07-23T06:02:48;93535.75;;;25.93;41.85
39789;BME280;25478;42.626;23.320;2022-07-23T06:05:15;93533.84;;;26.08;42.02
39789;BME280;25478;42.626;23.320;2022-07-23T06:07:41;93529.31;;;26.29;41.84
39789;BME280;25478;42.626;23.320;2022-07-23T06:10:07;93527.88;;;26.57;40.78
39789;BME280;25478;42.626;23.320;2022-07-23T06:12:33;93525.25;;;26.63;40.55
39789;BME280;25478;42.626;23.320;2022-07-23T06:14:59;93512.72;;;26.75;40.64
39789;BME280;25478;42.626;23.320;2022-07-23T06:17:26;93521.34;;;27.08;40.06
39789;BME280;25478;42.626;23.320;2022-07-23T06:19:52;93523.66;;;27.15;39.19
39789;BME280;25478;42.626;23.320;2022-07-23T06:22:18;93523.19;;;27.17;39.48
39789;BME280;25478;42.626;23.320;2022-07-23T06:24:45;93528.38;;;27.35;39.35
39789;BME280;25478;42.626;23.320;2022-07-23T06:27:10;93525.50;;;27.59;38.36
39789;BME280;25478;42.626;23.320;2022-07-23T06:29:36;93524.84;;;27.85;38.15
39789;BME280;25478;42.626;23.320;2022-07-23T06:32:01;93529.97;;;28.03;37.49
39789;BME280;25478;42.626;23.320;2022-07-23T06:34:27;93530.78;;;28.09;37.44
39789;BME280;25478;42.626;23.320;2022-07-23T06:36:54;93526.72;;;28.19;36.90
39789;BME280;25478;42.626;23.320;2022-07-23T06:39:20;93519.91;;;28.03;37.29
39789;BME280;25478;42.626;23.320;2022-07-23T06:41:47;93524.63;;;28.29;37.38
39789;BME280;25478;42.626;23.320;2022-07-23T06:44:13;93524.88;;;28.57;37.13
39789;BME280;25478;42.626;23.320;2022-07-23T06:46:40;93521.75;;;28.64;36.87
39789;BME280;25478;42.626;23.320;2022-07-23T06:49:06;93518.25;;;28.58;36.49
39789;BME280;25478;42.626;23.320;2022-07-23T06:51:31;93524.78;;;28.46;37.22
39789;BME280;25478;42.626;23.320;2022-07-23T06:53:58;93524.25;;;28.42;37.51
39789;BME280;25478;42.626;23.320;2022-07-23T06:56:25;93520.78;;;28.41;37.47
39789;BME280;25478;42.626;23.320;2022-07-23T06:58:52;93515.81;;;28.34;37.93
39789;BME280;25478;42.626;23.320;2022-07-23T07:01:17;93519.66;;;28.27;38.13
39789;BME280;25478;42.626;23.320;2022-07-23T07:03:43;93519.88;;;28.50;37.78
39789;BME280;25478;42.626;23.320;2022-07-23T07:06:09;93525.19;;;28.65;37.15
39789;BME280;25478;42.626;23.320;2022-07-23T07:08:34;93528.94;;;28.67;36.58
39789;BME280;25478;42.626;23.320;2022-07-23T07:11:00;93527.41;;;28.66;36.36
39789;BME280;25478;42.626;23.320;2022-07-23T07:13:25;93523.03;;;28.69;36.27
39789;BME280;25478;42.626;23.320;2022-07-23T07:15:51;93521.41;;;28.82;36.49
39789;BME280;25478;42.626;23.320;2022-07-23T07:18:16;93521.00;;;28.90;36.13
39789;BME280;25478;42.626;23.320;2022-07-23T07:20:42;93518.00;;;28.87;36.40
39789;BME280;25478;42.626;23.320;2022-07-23T07:23:07;93518.28;;;28.90;35.37
39789;BME280;25478;42.626;23.320;2022-07-23T07:25:33;93514.72;;;29.04;35.44
39789;BME280;25478;42.626;23.320;2022-07-23T07:27:59;93516.06;;;29.20;35.69
39789;BME280;25478;42.626;23.320;2022-07-23T07:30:24;93508.97;;;29.28;35.87
39789;BME280;25478;42.626;23.320;2022-07-23T07:32:51;93506.00;;;29.31;35.78
39789;BME280;25478;42.626;23.320;2022-07-23T07:35:16;93507.56;;;29.43;36.41
39789;BME280;25478;42.626;23.320;2022-07-23T07:37:42;93497.97;;;29.48;35.72
39789;BME280;25478;42.626;23.320;2022-07-23T07:40:08;93507.88;;;29.51;35.53
39789;BME280;25478;42.626;23.320;2022-07-23T07:42:33;93509.63;;;29.54;35.74
39789;BME280;25478;42.626;23.320;2022-07-23T07:44:59;93508.88;;;29.59;35.06
39789;BME280;25478;42.626;23.320;2022-07-23T07:47:25;93509.16;;;29.61;34.85
39789;BME280;25478;42.626;23.320;2022-07-23T07:49:51;93510.44;;;29.71;34.74
39789;BME280;25478;42.626;23.320;2022-07-23T07:52:16;93512.91;;;29.75;34.94
39789;BME280;25478;42.626;23.320;2022-07-23T07:54:42;93494.94;;;29.78;34.89
39789;BME280;25478;42.626;23.320;2022-07-23T07:57:08;93507.13;;;30.05;34.97
39789;BME280;25478;42.626;23.320;2022-07-23T07:59:34;93501.75;;;30.21;34.68
39789;BME280;25478;42.626;23.320;2022-07-23T08:01:59;93506.72;;;30.34;34.67
39789;BME280;25478;42.626;23.320;2022-07-23T08:04:25;93496.38;;;30.44;34.74
39789;BME280;25478;42.626;23.320;2022-07-23T08:06:50;93500.09;;;30.58;34.67
39789;BME280;25478;42.626;23.320;2022-07-23T08:09:16;93497.38;;;30.63;34.64
39789;BME280;25478;42.626;23.320;2022-07-23T08:11:41;93496.66;;;30.68;34.29
39789;BME280;25478;42.626;23.320;2022-07-23T08:14:07;93498.88;;;30.75;33.26
39789;BME280;25478;42.626;23.320;2022-07-23T08:16:32;93496.91;;;30.76;33.76
39789;BME280;25478;42.626;23.320;2022-07-23T08:18:58;93494.16;;;30.65;33.32
39789;BME280;25478;42.626;23.320;2022-07-23T08:21:23;93477.34;;;30.38;33.66
39789;BME280;25478;42.626;23.320;2022-07-23T08:23:49;93485.00;;;30.40;33.96
39789;BME280;25478;42.626;23.320;2022-07-23T08:26:14;93496.13;;;30.47;33.51
39789;BME280;25478;42.626;23.320;2022-07-23T08:28:40;93489.47;;;30.60;33.07
39789;BME280;25478;42.626;23.320;2022-07-23T08:31:05;93494.16;;;30.65;33.26
39789;BME280;25478;42.626;23.320;2022-07-23T08:33:31;93494.66;;;30.63;32.83
39789;BME280;25478;42.626;23.320;2022-07-23T08:35:57;93488.47;;;30.57;32.84
39789;BME280;25478;42.626;23.320;2022-07-23T08:38:23;93492.44;;;30.56;33.48
39789;BME280;25478;42.626;23.320;2022-07-23T08:40:54;93494.91;;;30.54;33.49
39789;BME280;25478;42.626;23.320;2022-07-23T08:43:30;93496.13;;;30.59;33.58
39789;BME280;25478;42.626;23.320;2022-07-23T08:45:57;93493.44;;;30.64;32.97
39789;BME280;25478;42.626;23.320;2022-07-23T08:48:25;93494.69;;;30.69;32.77
39789;BME280;25478;42.626;23.320;2022-07-23T08:50:53;93494.69;;;30.80;32.59
39789;BME280;25478;42.626;23.320;2022-07-23T08:53:21;93487.53;;;30.82;32.12
39789;BME280;25478;42.626;23.320;2022-07-23T08:55:48;93492.97;;;30.82;32.64
39789;BME280;25478;42.626;23.320;2022-07-23T08:58:14;93487.28;;;30.86;32.46
39789;BME280;25478;42.626;23.320;2022-07-23T09:00:40;93492.22;;;30.99;32.70
39789;BME280;25478;42.626;23.320;2022-07-23T09:03:06;93479.34;;;30.99;32.87
39789;BME280;25478;42.626;23.320;2022-07-23T09:05:32;93485.78;;;31.13;31.83
39789;BME280;25478;42.626;23.320;2022-07-23T09:10:29;93480.06;;;31.17;31.89
39789;BME280;25478;42.626;23.320;2022-07-23T09:12:54;93493.44;;;31.31;31.84
39789;BME280;25478;42.626;23.320;2022-07-23T09:15:20;93489.72;;;31.34;31.79
39789;BME280;25478;42.626;23.320;2022-07-23T09:17:46;93478.13;;;31.28;31.30
39789;BME280;25478;42.626;23.320;2022-07-23T09:20:14;93486.00;;;31.32;31.08
39789;BME280;25478;42.626;23.320;2022-07-23T09:22:47;93476.38;;;31.20;30.95
39789;BME280;25478;42.626;23.320;2022-07-23T09:25:16;93486.28;;;31.23;30.84
39789;BME280;25478;42.626;23.320;2022-07-23T09:28:00;93485.53;;;31.28;30.64
39789;BME280;25478;42.626;23.320;2022-07-23T09:30:30;93484.03;;;31.32;30.41
39789;BME280;25478;42.626;23.320;2022-07-23T09:35:55;93477.31;;;31.45;30.33
39789;BME280;25478;42.626;23.320;2022-07-23T09:38:23;93481.78;;;31.48;30.17
39789;BME280;25478;42.626;23.320;2022-07-23T09:41:08;93485.69;;;31.52;29.64
39789;BME280;25478;42.626;23.320;2022-07-23T09:43:35;93474.59;;;31.50;28.93
39789;BME280;25478;42.626;23.320;2022-07-23T09:46:22;93473.56;;;31.59;28.84
39789;BME280;25478;42.626;23.320;2022-07-23T09:48:55;93469.34;;;31.63;28.33
39789;BME280;25478;42.626;23.320;2022-07-23T09:51:23;93471.06;;;31.66;27.42
39789;BME280;25478;42.626;23.320;2022-07-23T09:54:01;93470.56;;;31.74;27.72
39789;BME280;25478;42.626;23.320;2022-07-23T09:56:28;93466.34;;;31.78;27.71
39789;BME280;25478;42.626;23.320;2022-07-23T09:58:54;93461.09;;;31.86;27.74
39789;BME280;25478;42.626;23.320;2022-07-23T10:01:40;93450.19;;;31.91;28.01
39789;BME280;25478;42.626;23.320;2022-07-23T10:04:06;93464.22;;;32.07;28.04
39789;BME280;25478;42.626;23.320;2022-07-23T10:07:11;93455.75;;;32.21;27.70
39789;BME280;25478;42.626;23.320;2022-07-23T10:09:57;93455.66;;;32.38;27.60
39789;BME280;25478;42.626;23.320;2022-07-23T10:12:55;93455.38;;;32.42;26.93
39789;BME280;25478;42.626;23.320;2022-07-23T10:15:41;93454.13;;;32.43;26.76
39789;BME280;25478;42.626;23.320;2022-07-23T10:18:10;93448.97;;;32.39;26.62
39789;BME280;25478;42.626;23.320;2022-07-23T10:20:36;93451.69;;;32.39;25.94
39789;BME280;25478;42.626;23.320;2022-07-23T10:25:58;93450.16;;;32.44;25.56
39789;BME280;25478;42.626;23.320;2022-07-23T10:28:42;93443.66;;;32.53;25.35
39789;BME280;25478;42.626;23.320;2022-07-23T10:36:44;93441.19;;;32.85;25.10
39789;BME280;25478;42.626;23.320;2022-07-23T10:39:20;93427.03;;;32.86;24.25
39789;BME280;25478;42.626;23.320;2022-07-23T10:41:47;93435.59;;;33.01;24.02
39789;BME280;25478;42.626;23.320;2022-07-23T10:44:23;93415.75;;;33.01;22.96
39789;BME280;25478;42.626;23.320;2022-07-23T10:47:03;93430.81;;;33.08;22.38
39789;BME280;25478;42.626;23.320;2022-07-23T10:49:47;93419.56;;;32.92;23.05
39789;BME280;25478;42.626;23.320;2022-07-23T10:57:11;93420.59;;;33.14;22.05
39789;BME280;25478;42.626;23.320;2022-07-23T11:02:49;93418.91;;;33.29;20.93
39789;BME280;25478;42.626;23.320;2022-07-23T11:05:17;93420.16;;;33.28;20.11
39789;BME280;25478;42.626;23.320;2022-07-23T11:10:36;93400.06;;;33.31;20.73
39789;BME280;25478;42.626;23.320;2022-07-23T11:24:08;93393.56;;;33.59;20.99
39789;BME280;25478;42.626;23.320;2022-07-23T11:32:00;93379.25;;;33.72;20.26
39789;BME280;25478;42.626;23.320;2022-07-23T11:34:42;93382.22;;;33.74;20.31
39789;BME280;25478;42.626;23.320;2022-07-23T11:37:10;93385.38;;;33.78;20.52
39789;BME280;25478;42.626;23.320;2022-07-23T11:39:36;93385.25;;;33.89;20.81
39789;BME280;25478;42.626;23.320;2022-07-23T11:42:04;93377.94;;;33.97;20.83
39789;BME280;25478;42.626;23.320;2022-07-23T11:44:38;93372.09;;;34.06;20.96
39789;BME280;25478;42.626;23.320;2022-07-23T11:47:06;93368.75;;;34.13;21.03
39789;BME280;25478;42.626;23.320;2022-07-23T11:49:32;93374.13;;;34.19;20.80
39789;BME280;25478;42.626;23.320;2022-07-23T11:52:12;93366.81;;;34.27;19.99
39789;BME280;25478;42.626;23.320;2022-07-23T11:54:59;93361.47;;;34.35;19.89
39789;BME280;25478;42.626;23.320;2022-07-23T11:57:30;93366.56;;;34.44;19.17
39789;BME280;25478;42.626;23.320;2022-07-23T12:00:02;93362.38;;;34.43;17.96
39789;BME280;25478;42.626;23.320;2022-07-23T12:02:43;93355.97;;;34.40;18.75
39789;BME280;25478;42.626;23.320;2022-07-23T12:05:16;93360.91;;;34.42;18.69
39789;BME280;25478;42.626;23.320;2022-07-23T12:07:44;93359.31;;;34.47;18.64
39789;BME280;25478;42.626;23.320;2022-07-23T12:10:50;93358.81;;;34.48;18.23
39789;BME280;25478;42.626;23.320;2022-07-23T12:13:18;93357.22;;;34.53;17.19
39789;BME280;25478;42.626;23.320;2022-07-23T12:15:52;93350.41;;;34.59;17.76
39789;BME280;25478;42.626;23.320;2022-07-23T12:18:21;93354.75;;;34.68;17.78
39789;BME280;25478;42.626;23.320;2022-07-23T12:20:50;93348.22;;;34.71;16.39
39789;BME280;25478;42.626;23.320;2022-07-23T12:23:19;93342.63;;;34.63;16.76
39789;BME280;25478;42.626;23.320;2022-07-23T12:25:47;93342.22;;;34.72;16.83
39789;BME280;25478;42.626;23.320;2022-07-23T12:28:14;93346.00;;;34.69;16.98
39789;BME280;25478;42.626;23.320;2022-07-23T12:30:44;93343.28;;;34.69;17.24
39789;BME280;25478;42.626;23.320;2022-07-23T12:33:14;93335.81;;;34.70;17.39
39789;BME280;25478;42.626;23.320;2022-07-23T12:35:45;93329.72;;;34.77;17.71
39789;BME280;25478;42.626;23.320;2022-07-23T12:38:19;93328.06;;;34.74;17.09
39789;BME280;25478;42.626;23.320;2022-07-23T12:40:50;93336.00;;;34.72;16.89
39789;BME280;25478;42.626;23.320;2022-07-23T12:43:26;93329.81;;;34.71;17.78
39789;BME280;25478;42.626;23.320;2022-07-23T12:48:31;93332.66;;;34.79;17.00
39789;BME280;25478;42.626;23.320;2022-07-23T12:51:03;93316.06;;;34.77;15.96
39789;BME280;25478;42.626;23.320;2022-07-23T12:53:36;93322.47;;;34.80;16.16
39789;BME280;25478;42.626;23.320;2022-07-23T12:56:04;93315.84;;;34.75;16.36
39789;BME280;25478;42.626;23.320;2022-07-23T13:06:49;93323.97;;;34.94;15.94
39789;BME280;25478;42.626;23.320;2022-07-23T13:09:26;93324.91;;;34.96;16.56
39789;BME280;25478;42.626;23.320;2022-07-23T13:11:53;93305.63;;;34.89;16.35
39789;BME280;25478;42.626;23.320;2022-07-23T13:14:20;93315.53;;;35.05;15.63
39789;BME280;25478;42.626;23.320;2022-07-23T13:16:46;93312.50;;;35.09;15.46
39789;BME280;25478;42.626;23.320;2022-07-23T13:19:12;93308.72;;;35.12;15.87
39789;BME280;25478;42.626;23.320;2022-07-23T13:21:39;93317.94;;;35.22;15.09
39789;BME280;25478;42.626;23.320;2022-07-23T13:24:06;93313.22;;;35.22;14.92
39789;BME280;25478;42.626;23.320;2022-07-23T13:26:32;93300.19;;;35.15;15.10
39789;BME280;25478;42.626;23.320;2022-07-23T13:28:57;93313.75;;;35.21;15.33
39789;BME280;25478;42.626;23.320;2022-07-23T13:31:23;93310.16;;;35.13;15.95
39789;BME280;25478;42.626;23.320;2022-07-23T13:33:49;93312.38;;;35.14;15.63
39789;BME280;25478;42.626;23.320;2022-07-23T13:36:15;93294.00;;;35.02;15.23
39789;BME280;25478;42.626;23.320;2022-07-23T13:38:40;93309.56;;;35.07;14.88
39789;BME280;25478;42.626;23.320;2022-07-23T13:41:06;93290.09;;;34.97;16.31
39789;BME280;25478;42.626;23.320;2022-07-23T13:43:32;93294.19;;;35.04;16.04
39789;BME280;25478;42.626;23.320;2022-07-23T13:45:57;93303.13;;;35.04;15.17
39789;BME280;25478;42.626;23.320;2022-07-23T13:48:23;93299.78;;;34.98;14.47